sensor_id;sensor_type;location;lat;lon;timestamp;pressure;altitude;pressure_sealevel;temperature;humidity
6034;BME280;3045;43.226;27.858;2023-04-20T00:00:31;-7255.25;;;11.54;100.00
6034;BME280;3045;43.226;27.858;2023-04-20T00:03:00;-6936.44;;;11.63;100.00
6034;BME280;3045;43.226;27.858;2023-04-20T00:05:28;-8213.56;;;11.61;100.00
6034;BME280;3045;43.226;27.858;2023-04-20T00:07:56;-9170.31;;;11.52;100.00
6034;BME280;3045;43.226;27.858;2023-04-20T00:10:24;-9168.88;;;11.36;100.00
6034;BME280;3045;43.226;27.858;2023-04-20T00:12:51;-10123.91;;;11.19;100.00
6034;BME280;3045;43.226;27.858;2023-04-20T00:15:18;-10125.88;;;11.37;100.00
6034;BME280;3045;43.226;27.858;2023-04-20T00:17:46;-10444.56;;;11.35;100.00
6034;BME280;3045;43.226;27.858;2023-04-20T00:20:14;-10445.41;;;11.42;100.00
6034;BME280;3045;43.226;27.858;2023-04-20T00:22:41;-10445.44;;;11.42;100.00
6034;BME280;3045;43.226;27.858;2023-04-20T00:25:09;-10764.63;;;11.44;100.00
6034;BME280;3045;43.226;27.858;2023-04-20T00:27:35;-10445.41;;;11.42;100.00
6034;BME280;3045;43.226;27.858;2023-04-20T00:30:03;-9808.84;;;11.55;100.00
6034;BME280;3045;43.226;27.858;2023-04-20T00:32:30;-10127.06;;;11.48;100.00
6034;BME280;3045;43.226;27.858;2023-04-20T00:34:57;-10447.16;;;11.57;100.00
6034;BME280;3045;43.226;27.858;2023-04-20T00:37:26;-9490.59;;;11.63;100.00
6034;BME280;3045;43.226;27.858;2023-04-20T00:39:54;-8851.81;;;11.59;100.00
6034;BME280;3045;43.226;27.858;2023-04-20T00:42:21;-8850.72;;;11.46;100.00
6034;BME280;3045;43.226;27.858;2023-04-20T00:44:48;-10126.66;;;11.44;100.00
6034;BME280;3045;43.226;27.858;2023-04-20T00:47:16;-10127.91;;;11.55;100.00
6034;BME280;3045;43.226;27.858;2023-04-20T00:49:43;-9809.69;;;11.63;100.00
6034;BME280;3045;43.226;27.858;2023-04-20T00:52:10;-10129.59;;;11.70;100.00
6034;BME280;3045;43.226;27.858;2023-04-20T00:54:38;-8852.75;;;11.69;100.00
6034;BME280;3045;43.226;27.858;2023-04-20T00:57:06;-6617.50;;;11.71;100.00
6034;BME280;3045;43.226;27.858;2023-04-20T00:59:33;-5658.94;;;11.70;100.00
6034;BME280;3045;43.226;27.858;2023-04-20T01:02:00;-5019.50;;;11.61;100.00
6034;BME280;3045;43.226;27.858;2023-04-20T01:04:27;-3741.03;;;11.67;100.00
6034;BME280;3045;43.226;27.858;2023-04-20T01:06:54;-4380.44;;;11.68;100.00
6034;BME280;3045;43.226;27.858;2023-04-20T01:09:21;-5018.84;;;11.38;100.00
6034;BME280;3045;43.226;27.858;2023-04-20T01:11:50;-6934.88;;;11.36;100.00
6034;BME280;3045;43.226;27.858;2023-04-20T01:14:17;-6616.31;;;11.50;100.00
6034;BME280;3045;43.226;27.858;2023-04-20T01:16:44;-6936.25;;;11.60;100.00
6034;BME280;3045;43.226;27.858;2023-04-20T01:19:12;-6296.69;;;11.44;100.00
6034;BME280;3045;43.226;27.858;2023-04-20T01:21:40;-5978.22;;;11.65;100.00
6034;BME280;3045;43.226;27.858;2023-04-20T01:24:08;-5658.44;;;11.58;100.00
6034;BME280;3045;43.226;27.858;2023-04-20T01:26:35;-5978.09;;;11.62;100.00
6034;BME280;3045;43.226;27.858;2023-04-20T01:29:04;-5977.34;;;11.45;100.00
6034;BME280;3045;43.226;27.858;2023-04-20T01:31:31;-7253.84;;;11.32;100.00
6034;BME280;3045;43.226;27.858;2023-04-20T01:33:58;-7573.69;;;11.42;100.00
6034;BME280;3045;43.226;27.858;2023-04-20T01:36:25;-7574.38;;;11.52;100.00
6034;BME280;3045;43.226;27.858;2023-04-20T01:38:52;-6616.66;;;11.56;100.00
6034;BME280;3045;43.226;27.858;2023-04-20T01:41:21;-6297.28;;;11.56;100.00
6034;BME280;3045;43.226;27.858;2023-04-20T01:43:48;-5977.72;;;11.54;100.00
6034;BME280;3045;43.226;27.858;2023-04-20T01:46:15;-5019.19;;;11.51;100.00
6034;BME280;3045;43.226;27.858;2023-04-20T01:48:42;-3740.97;;;11.57;100.00
6034;BME280;3045;43.226;27.858;2023-04-20T01:51:09;-3421.25;;;11.52;100.00
6034;BME280;3045;43.226;27.858;2023-04-20T01:53:36;-3101.56;;;11.61;100.00
6034;BME280;3045;43.226;27.858;2023-04-20T01:56:03;-4060.41;;;11.41;100.00
6034;BME280;3045;43.226;27.858;2023-04-20T01:58:31;-6295.47;;;11.20;100.00
6034;BME280;3045;43.226;27.858;2023-04-20T02:01:00;-6934.44;;;11.29;100.00
6034;BME280;3045;43.226;27.858;2023-04-20T02:03:27;-8211.19;;;11.31;100.00
6034;BME280;3045;43.226;27.858;2023-04-20T02:05:54;-8849.63;;;11.34;100.00
6034;BME280;3045;43.226;27.858;2023-04-20T02:08:21;-9483.44;;;10.92;100.00
6034;BME280;3045;43.226;27.858;2023-04-20T02:10:48;-10442.28;;;11.15;100.00
6034;BME280;3045;43.226;27.858;2023-04-20T02:13:15;-12675.25;;;11.29;100.00
6034;BME280;3045;43.226;27.858;2023-04-20T02:15:44;-12676.25;;;11.36;100.00
6034;BME280;3045;43.226;27.858;2023-04-20T02:18:11;-12359.19;;;11.47;100.00
6034;BME280;3045;43.226;27.858;2023-04-20T02:20:40;-12359.19;;;11.47;100.00
6034;BME280;3045;43.226;27.858;2023-04-20T02:23:07;-12039.19;;;11.38;100.00
6034;BME280;3045;43.226;27.858;2023-04-20T02:25:34;-11083.28;;;11.42;100.00
6034;BME280;3045;43.226;27.858;2023-04-20T02:28:01;-10444.91;;;11.38;100.00
6034;BME280;3045;43.226;27.858;2023-04-20T02:30:28;-9807.66;;;11.44;100.00
6034;BME280;3045;43.226;27.858;2023-04-20T02:32:56;-11082.38;;;11.35;100.00
6034;BME280;3045;43.226;27.858;2023-04-20T02:35:24;-11720.13;;;11.36;100.00
6034;BME280;3045;43.226;27.858;2023-04-20T02:37:51;-12038.81;;;11.36;100.00
6034;BME280;3045;43.226;27.858;2023-04-20T02:40:18;-12358.53;;;11.42;100.00
6034;BME280;3045;43.226;27.858;2023-04-20T02:42:45;-12674.97;;;11.27;100.00
6034;BME280;3045;43.226;27.858;2023-04-20T02:45:12;-12675.97;;;11.34;100.00
6034;BME280;3045;43.226;27.858;2023-04-20T02:47:39;-12994.63;;;11.34;100.00
6034;BME280;3045;43.226;27.858;2023-04-20T02:50:09;-12673.03;;;11.15;100.00
6034;BME280;3045;43.226;27.858;2023-04-20T02:52:36;-13627.19;;;11.06;100.00
6034;BME280;3045;43.226;27.858;2023-04-20T02:55:04;-13947.88;;;11.19;100.00
6034;BME280;3045;43.226;27.858;2023-04-20T02:57:31;-13309.72;;;11.12;100.00
6034;BME280;3045;43.226;27.858;2023-04-20T02:59:58;-13629.22;;;11.18;100.00
6034;BME280;3045;43.226;27.858;2023-04-20T03:02:25;-12992.00;;;11.17;100.00
6034;BME280;3045;43.226;27.858;2023-04-20T03:04:52;-12674.41;;;11.24;100.00
6034;BME280;3045;43.226;27.858;2023-04-20T03:07:20;-12354.44;;;11.15;100.00
6034;BME280;3045;43.226;27.858;2023-04-20T03:09:48;-12036.31;;;11.18;100.00
6034;BME280;3045;43.226;27.858;2023-04-20T03:12:15;-12674.66;;;11.25;100.00
6034;BME280;3045;43.226;27.858;2023-04-20T03:14:43;-13631.75;;;11.33;100.00
6034;BME280;3045;43.226;27.858;2023-04-20T03:17:10;-13631.25;;;11.30;100.00
6034;BME280;3045;43.226;27.858;2023-04-20T03:19:37;-14583.22;;;11.11;100.00
6034;BME280;3045;43.226;27.858;2023-04-20T03:22:04;-14906.69;;;11.38;100.00
6034;BME280;3045;43.226;27.858;2023-04-20T03:24:33;-14907.63;;;11.43;100.00
6034;BME280;3045;43.226;27.858;2023-04-20T03:27:02;-14908.59;;;11.48;100.00
6034;BME280;3045;43.226;27.858;2023-04-20T03:29:29;-14909.72;;;11.54;100.00
6034;BME280;3045;43.226;27.858;2023-04-20T03:31:56;-14908.78;;;11.49;100.00
6034;BME280;3045;43.226;27.858;2023-04-20T03:34:23;-14908.50;;;11.48;100.00
6034;BME280;3045;43.226;27.858;2023-04-20T03:36:51;-14589.66;;;11.46;100.00
6034;BME280;3045;43.226;27.858;2023-04-20T03:39:18;-14591.25;;;11.55;100.00
6034;BME280;3045;43.226;27.858;2023-04-20T03:41:47;-14910.28;;;11.57;100.00
6034;BME280;3045;43.226;27.858;2023-04-20T03:44:14;-15228.97;;;11.58;100.00
6034;BME280;3045;43.226;27.858;2023-04-20T03:46:41;-15228.66;;;11.56;100.00
6034;BME280;3045;43.226;27.858;2023-04-20T03:49:08;-15228.84;;;11.57;100.00
6034;BME280;3045;43.226;27.858;2023-04-20T03:51:35;-14912.09;;;11.67;100.00
6034;BME280;3045;43.226;27.858;2023-04-20T03:54:02;-14913.34;;;11.73;100.00
6034;BME280;3045;43.226;27.858;2023-04-20T03:56:30;-15226.81;;;11.46;100.00
6034;BME280;3045;43.226;27.858;2023-04-20T03:58:59;-15871.44;;;11.84;100.00
6034;BME280;3045;43.226;27.858;2023-04-20T04:01:26;-15559.38;;;12.18;100.00
6034;BME280;3045;43.226;27.858;2023-04-20T04:03:54;-15562.88;;;12.35;100.00
6034;BME280;3045;43.226;27.858;2023-04-20T04:06:21;-14611.16;;;12.64;100.00
6034;BME280;3045;43.226;27.858;2023-04-20T04:08:48;-12379.50;;;12.86;100.00
6034;BME280;3045;43.226;27.858;2023-04-20T04:11:15;-9185.91;;;13.15;100.00
6034;BME280;3045;43.226;27.858;2023-04-20T04:13:42;-3421.72;;;13.22;100.00
6034;BME280;3045;43.226;27.858;2023-04-20T04:16:11;8142.50;;;13.44;100.00
6034;BME280;3045;43.226;27.858;2023-04-20T04:18:42;15885.56;;;13.80;100.00
6034;BME280;3045;43.226;27.858;2023-04-20T04:21:09;26877.44;;;13.81;100.00
6034;BME280;3045;43.226;27.858;2023-04-20T04:23:36;26230.34;;;13.82;100.00
6034;BME280;3045;43.226;27.858;2023-04-20T04:26:03;28822.19;;;13.84;100.00
6034;BME280;3045;43.226;27.858;2023-04-20T04:28:30;24277.16;;;13.57;100.00
6034;BME280;3045;43.226;27.858;2023-04-20T04:30:57;20072.72;;;13.50;100.00
6034;BME280;3045;43.226;27.858;2023-04-20T04:33:27;16528.50;;;13.71;100.00
6034;BME280;3045;43.226;27.858;2023-04-20T04:35:54;19759.31;;;13.76;100.00
6034;BME280;3045;43.226;27.858;2023-04-20T04:38:22;18139.00;;;13.61;100.00
6034;BME280;3045;43.226;27.858;2023-04-20T04:40:49;14591.38;;;13.67;100.00
6034;BME280;3045;43.226;27.858;2023-04-20T04:43:17;9434.38;;;13.66;100.00
6034;BME280;3045;43.226;27.858;2023-04-20T04:45:44;7179.47;;;13.57;100.00
6034;BME280;3045;43.226;27.858;2023-04-20T04:48:12;5890.84;;;13.45;100.00
6034;BME280;3045;43.226;27.858;2023-04-20T04:50:40;4602.91;;;13.31;100.00
6034;BME280;3045;43.226;27.858;2023-04-20T04:53:08;2674.34;;;13.21;100.00
6034;BME280;3045;43.226;27.858;2023-04-20T04:55:35;4281.25;;;13.28;100.00
6034;BME280;3045;43.226;27.858;2023-04-20T04:58:02;8462.88;;;13.37;100.00
6034;BME280;3045;43.226;27.858;2023-04-20T05:00:29;11042.38;;;13.55;100.00
6034;BME280;3045;43.226;27.858;2023-04-20T05:02:56;12652.66;;;13.52;100.00
6034;BME280;3045;43.226;27.858;2023-04-20T05:05:23;13298.75;;;13.57;100.00
6034;BME280;3045;43.226;27.858;2023-04-20T05:07:52;12330.28;;;13.51;100.00
6034;BME280;3045;43.226;27.858;2023-04-20T05:10:19;13620.72;;;13.56;100.00
6034;BME280;3045;43.226;27.858;2023-04-20T05:12:46;9751.97;;;13.45;100.00
6034;BME280;3045;43.226;27.858;2023-04-20T05:15:14;7822.78;;;13.56;100.00
6034;BME280;3045;43.226;27.858;2023-04-20T05:17:42;7824.41;;;13.65;100.00
6034;BME280;3045;43.226;27.858;2023-04-20T05:20:10;7178.94;;;13.54;100.00
6034;BME280;3045;43.226;27.858;2023-04-20T05:22:37;6537.50;;;13.67;100.00
6034;BME280;3045;43.226;27.858;2023-04-20T05:25:06;5895.38;;;13.76;100.00
6034;BME280;3045;43.226;27.858;2023-04-20T05:27:34;4930.78;;;13.80;100.00
6034;BME280;3045;43.226;27.858;2023-04-20T05:30:01;4609.66;;;13.84;100.00
6034;BME280;3045;43.226;27.858;2023-04-20T05:32:28;7826.59;;;13.77;100.00
6034;BME280;3045;43.226;27.858;2023-04-20T05:34:55;8790.56;;;13.67;100.00
6034;BME280;3045;43.226;27.858;2023-04-20T05:37:22;12013.41;;;13.73;100.00
6034;BME280;3045;43.226;27.858;2023-04-20T05:39:49;12657.47;;;13.70;100.00
6034;BME280;3045;43.226;27.858;2023-04-20T05:42:18;13945.66;;;13.65;100.00
6034;BME280;3045;43.226;27.858;2023-04-20T05:44:47;16852.09;;;13.74;100.00
6034;BME280;3045;43.226;27.858;2023-04-20T05:47:14;18135.69;;;13.51;100.00
6034;BME280;3045;43.226;27.858;2023-04-20T05:49:41;18144.06;;;13.76;100.00
6034;BME280;3045;43.226;27.858;2023-04-20T05:52:10;17818.91;;;13.69;100.00
6034;BME280;3045;43.226;27.858;2023-04-20T05:54:37;17172.41;;;13.66;100.00
6034;BME280;3045;43.226;27.858;2023-04-20T05:57:04;17820.63;;;13.74;100.00
6034;BME280;3045;43.226;27.858;2023-04-20T05:59:33;16853.41;;;13.78;100.00
6034;BME280;3045;43.226;27.858;2023-04-20T06:02:00;17170.09;;;13.59;100.00
6034;BME280;3045;43.226;27.858;2023-04-20T06:04:27;17823.38;;;13.82;100.00
6034;BME280;3045;43.226;27.858;2023-04-20T06:06:54;17178.91;;;13.86;100.00
6034;BME280;3045;43.226;27.858;2023-04-20T06:09:22;12656.81;;;13.68;100.00
6034;BME280;3045;43.226;27.858;2023-04-20T06:11:49;11691.94;;;13.77;100.00
6034;BME280;3045;43.226;27.858;2023-04-20T06:14:16;11047.72;;;13.78;100.00
6034;BME280;3045;43.226;27.858;2023-04-20T06:16:45;12018.88;;;13.95;100.00
6034;BME280;3045;43.226;27.858;2023-04-20T06:19:12;10730.28;;;13.99;100.00
6034;BME280;3045;43.226;27.858;2023-04-20T06:21:39;10406.97;;;13.95;100.00
6034;BME280;3045;43.226;27.858;2023-04-20T06:24:07;13312.78;;;14.10;100.00
6034;BME280;3045;43.226;27.858;2023-04-20T06:26:34;14283.56;;;14.19;100.00
6034;BME280;3045;43.226;27.858;2023-04-20T06:29:01;16866.84;;;14.19;100.00
6034;BME280;3045;43.226;27.858;2023-04-20T06:31:28;19132.91;;;14.31;100.00
6034;BME280;3045;43.226;27.858;2023-04-20T06:33:57;20106.59;;;14.40;100.00
6034;BME280;3045;43.226;27.858;2023-04-20T06:36:24;23343.44;;;14.42;100.00
6034;BME280;3045;43.226;27.858;2023-04-20T06:38:52;23993.50;;;14.47;100.00
6034;BME280;3045;43.226;27.858;2023-04-20T06:41:19;23995.72;;;14.52;100.00
6034;BME280;3045;43.226;27.858;2023-04-20T06:43:46;28854.66;;;14.46;100.00
6034;BME280;3045;43.226;27.858;2023-04-20T06:46:14;30811.56;;;14.65;100.00
6034;BME280;3045;43.226;27.858;2023-04-20T06:48:41;36675.03;;;14.88;100.00
6034;BME280;3045;43.226;27.858;2023-04-20T06:51:11;46794.78;;;15.13;100.00
6034;BME280;3045;43.226;27.858;2023-04-20T06:53:41;52032.53;;;15.25;100.00
6034;BME280;3045;43.226;27.858;2023-04-20T06:56:08;64150.38;;;15.22;100.00
6034;BME280;3045;43.226;27.858;2023-04-20T06:58:38;69744.34;;;15.31;100.00
6034;BME280;3045;43.226;27.858;2023-04-20T07:01:05;61857.78;;;15.26;100.00
6034;BME280;3045;43.226;27.858;2023-04-20T07:03:34;59229.56;;;15.20;100.00
6034;BME280;3045;43.226;27.858;2023-04-20T07:06:02;58243.69;;;15.17;100.00
6034;BME280;3045;43.226;27.858;2023-04-20T07:08:34;61802.34;;;14.73;100.00
6034;BME280;3045;43.226;27.858;2023-04-20T07:11:01;62472.28;;;14.87;100.00
6034;BME280;3045;43.226;27.858;2023-04-20T07:13:29;56564.66;;;14.74;100.00
6034;BME280;3045;43.226;27.858;2023-04-20T07:15:57;45451.50;;;14.64;100.00
6034;BME280;3045;43.226;27.858;2023-04-20T07:18:24;26584.78;;;14.46;100.00
6034;BME280;3045;43.226;27.858;2023-04-20T07:20:51;19136.75;;;14.41;100.00
6034;BME280;3045;43.226;27.858;2023-04-20T07:23:18;19788.06;;;14.53;100.00
6034;BME280;3045;43.226;27.858;2023-04-20T07:25:47;22377.88;;;14.55;100.00
6034;BME280;3045;43.226;27.858;2023-04-20T07:28:14;27546.22;;;14.24;100.00
6034;BME280;3045;43.226;27.858;2023-04-20T07:30:41;27239.31;;;14.58;100.00
6034;BME280;3045;43.226;27.858;2023-04-20T07:33:08;24653.84;;;14.75;100.00
6034;BME280;3045;43.226;27.858;2023-04-20T07:35:36;28540.72;;;14.67;100.00
6034;BME280;3045;43.226;27.858;2023-04-20T07:38:03;29523.47;;;14.84;100.00
6034;BME280;3045;43.226;27.858;2023-04-20T07:40:30;30184.19;;;15.05;100.00
6034;BME280;3045;43.226;27.858;2023-04-20T07:42:59;33107.59;;;15.04;100.00
6034;BME280;3045;43.226;27.858;2023-04-20T07:45:26;34090.53;;;15.17;100.00
6034;BME280;3045;43.226;27.858;2023-04-20T07:47:53;41581.09;;;15.20;100.00
6034;BME280;3045;43.226;27.858;2023-04-20T07:50:21;54973.47;;;15.21;100.00
6034;BME280;3045;43.226;27.858;2023-04-20T07:52:49;66442.53;;;15.17;100.00
6034;BME280;3045;43.226;27.858;2023-04-20T07:55:16;66454.50;;;15.28;100.00
6034;BME280;3045;43.226;27.858;2023-04-20T07:57:45;73680.78;;;15.23;100.00
6034;BME280;3045;43.226;27.858;2023-04-20T08:00:18;81904.91;;;15.14;100.00
6034;BME280;3045;43.226;27.858;2023-04-20T08:02:45;76955.31;;;15.09;100.00
6034;BME280;3045;43.226;27.858;2023-04-20T08:05:12;74945.97;;;14.82;100.00
6034;BME280;3045;43.226;27.858;2023-04-20T08:07:39;76285.66;;;15.00;100.00
6034;BME280;3045;43.226;27.858;2023-04-20T08:10:07;74634.28;;;14.96;100.00
6034;BME280;3045;43.226;27.858;2023-04-20T08:12:35;69384.66;;;15.05;100.00
6034;BME280;3045;43.226;27.858;2023-04-20T08:15:02;74980.66;;;15.09;100.00
6034;BME280;3045;43.226;27.858;2023-04-20T08:17:35;89194.31;;;15.31;100.00
6034;BME280;3045;43.226;27.858;2023-04-20T08:20:03;96170.13;;;15.47;100.00
6034;BME280;3045;43.226;27.858;2023-04-20T08:22:31;110800.13;;;15.58;100.00
6034;BME280;3045;43.226;27.858;2023-04-20T08:24:58;140879.34;;;15.47;100.00
6034;BME280;3045;43.226;27.858;2023-04-20T08:27:25;149993.00;;;15.74;100.00
6034;BME280;3045;43.226;27.858;2023-04-20T08:29:55;149998.06;;;15.76;100.00
6034;BME280;3045;43.226;27.858;2023-04-20T08:32:23;150064.06;;;16.02;100.00
6034;BME280;3045;43.226;27.858;2023-04-20T08:34:52;150041.22;;;15.93;100.00
6034;BME280;3045;43.226;27.858;2023-04-20T08:37:20;150034.88;;;15.90;100.00
6034;BME280;3045;43.226;27.858;2023-04-20T08:39:48;150042.50;;;15.93;100.00
6034;BME280;3045;43.226;27.858;2023-04-20T08:42:15;150041.22;;;15.93;100.00
6034;BME280;3045;43.226;27.858;2023-04-20T08:44:42;150047.56;;;15.95;100.00
6034;BME280;3045;43.226;27.858;2023-04-20T08:47:09;150076.78;;;16.07;100.00
6034;BME280;3045;43.226;27.858;2023-04-20T08:49:38;150121.22;;;16.25;100.00
6034;BME280;3045;43.226;27.858;2023-04-20T08:52:08;150177.06;;;16.47;100.00
6034;BME280;3045;43.226;27.858;2023-04-20T08:54:35;150220.28;;;16.64;100.00
6034;BME280;3045;43.226;27.858;2023-04-20T08:57:02;150315.53;;;17.02;100.00
6034;BME280;3045;43.226;27.858;2023-04-20T08:59:30;150358.72;;;17.19;100.00
6034;BME280;3045;43.226;27.858;2023-04-20T09:02:07;150354.94;;;17.18;100.00
6034;BME280;3045;43.226;27.858;2023-04-20T09:04:35;150344.78;;;17.14;100.00
6034;BME280;3045;43.226;27.858;2023-04-20T09:07:01;150271.13;;;16.84;100.00
6034;BME280;3045;43.226;27.858;2023-04-20T09:09:30;150185.97;;;16.51;100.00
6034;BME280;3045;43.226;27.858;2023-04-20T09:12:00;150166.91;;;16.43;100.00
6034;BME280;3045;43.226;27.858;2023-04-20T09:14:28;150122.44;;;16.25;100.00
6034;BME280;3045;43.226;27.858;2023-04-20T09:16:57;150099.63;;;16.16;100.00
6034;BME280;3045;43.226;27.858;2023-04-20T09:19:28;150081.81;;;16.09;100.00
6034;BME280;3045;43.226;27.858;2023-04-20T09:21:56;150097.09;;;16.15;100.00
6034;BME280;3045;43.226;27.858;2023-04-20T09:24:31;150163.13;;;16.41;100.00
6034;BME280;3045;43.226;27.858;2023-04-20T09:26:58;150217.78;;;16.63;100.00
6034;BME280;3045;43.226;27.858;2023-04-20T09:29:29;150227.94;;;16.67;100.00
6034;BME280;3045;43.226;27.858;2023-04-20T09:31:57;150182.16;;;16.49;100.00
6034;BME280;3045;43.226;27.858;2023-04-20T09:34:24;150147.84;;;16.35;100.00
6034;BME280;3045;43.226;27.858;2023-04-20T09:36:51;150133.88;;;16.30;100.00
6034;BME280;3045;43.226;27.858;2023-04-20T09:39:21;150182.16;;;16.49;100.00
6034;BME280;3045;43.226;27.858;2023-04-20T09:41:51;150175.78;;;16.46;100.00
6034;BME280;3045;43.226;27.858;2023-04-20T09:44:18;150207.56;;;16.59;100.00
6034;BME280;3045;43.226;27.858;2023-04-20T09:46:45;150221.56;;;16.65;100.00
6034;BME280;3045;43.226;27.858;2023-04-20T09:49:13;150240.59;;;16.72;100.00
6034;BME280;3045;43.226;27.858;2023-04-20T09:51:42;150230.44;;;16.68;100.00
6034;BME280;3045;43.226;27.858;2023-04-20T09:54:11;150235.53;;;16.70;100.00
6034;BME280;3045;43.226;27.858;2023-04-20T09:56:40;150219.00;;;16.64;100.00
6034;BME280;3045;43.226;27.858;2023-04-20T09:59:08;150225.38;;;16.66;100.00
6034;BME280;3045;43.226;27.858;2023-04-20T10:01:35;150212.66;;;16.61;100.00
6034;BME280;3045;43.226;27.858;2023-04-20T10:04:06;150197.38;;;16.55;100.00
6034;BME280;3045;43.226;27.858;2023-04-20T10:06:34;150145.31;;;16.34;100.00
6034;BME280;3045;43.226;27.858;2023-04-20T10:09:07;150179.59;;;16.48;100.00
6034;BME280;3045;43.226;27.858;2023-04-20T10:11:39;150174.53;;;16.46;100.00
6034;BME280;3045;43.226;27.858;2023-04-20T10:14:18;150112.28;;;16.21;100.00
6034;BME280;3045;43.226;27.858;2023-04-20T10:16:56;150144.03;;;16.34;100.00
6034;BME280;3045;43.226;27.858;2023-04-20T10:19:35;150151.69;;;16.37;100.00
6034;BME280;3045;43.226;27.858;2023-04-20T10:22:02;150175.78;;;16.46;100.00
6034;BME280;3045;43.226;27.858;2023-04-20T10:24:29;150164.38;;;16.42;100.00
6034;BME280;3045;43.226;27.858;2023-04-20T10:26:57;150135.16;;;16.30;100.00
6034;BME280;3045;43.226;27.858;2023-04-20T10:29:29;150123.72;;;16.26;100.00
6034;BME280;3045;43.226;27.858;2023-04-20T10:31:56;150136.44;;;16.31;100.00
6034;BME280;3045;43.226;27.858;2023-04-20T10:34:29;150093.25;;;16.14;100.00
6034;BME280;3045;43.226;27.858;2023-04-20T10:37:06;150085.66;;;16.11;100.00
6034;BME280;3045;43.226;27.858;2023-04-20T10:39:34;150060.25;;;16.00;100.00
6034;BME280;3045;43.226;27.858;2023-04-20T10:42:02;150111.06;;;16.21;100.00
6034;BME280;3045;43.226;27.858;2023-04-20T10:44:31;150150.41;;;16.36;100.00
6034;BME280;3045;43.226;27.858;2023-04-20T10:47:00;150126.28;;;16.27;100.00
6034;BME280;3045;43.226;27.858;2023-04-20T10:49:27;150130.09;;;16.28;100.00
6034;BME280;3045;43.226;27.858;2023-04-20T10:51:56;150109.78;;;16.20;100.00
6034;BME280;3045;43.226;27.858;2023-04-20T10:54:23;150154.19;;;16.38;100.00
6034;BME280;3045;43.226;27.858;2023-04-20T10:56:51;150146.59;;;16.35;100.00
6034;BME280;3045;43.226;27.858;2023-04-20T10:59:19;150161.84;;;16.41;100.00
6034;BME280;3045;43.226;27.858;2023-04-20T11:01:48;150088.22;;;16.12;100.00
6034;BME280;3045;43.226;27.858;2023-04-20T11:04:16;150158.00;;;16.39;100.00
6034;BME280;3045;43.226;27.858;2023-04-20T11:06:44;150140.25;;;16.32;100.00
6034;BME280;3045;43.226;27.858;2023-04-20T11:09:18;150164.38;;;16.42;100.00
6034;BME280;3045;43.226;27.858;2023-04-20T11:11:57;150164.38;;;16.42;100.00
6034;BME280;3045;43.226;27.858;2023-04-20T11:14:24;150150.41;;;16.36;100.00
6034;BME280;3045;43.226;27.858;2023-04-20T11:16:53;150213.94;;;16.62;100.00
6034;BME280;3045;43.226;27.858;2023-04-20T11:19:25;150177.06;;;16.47;100.00
6034;BME280;3045;43.226;27.858;2023-04-20T11:21:52;150227.94;;;16.67;100.00
6034;BME280;3045;43.226;27.858;2023-04-20T11:24:21;150271.13;;;16.84;100.00
6034;BME280;3045;43.226;27.858;2023-04-20T11:26:49;150283.78;;;16.89;100.00
6034;BME280;3045;43.226;27.858;2023-04-20T11:29:29;150295.22;;;16.94;100.00
6034;BME280;3045;43.226;27.858;2023-04-20T11:31:58;150337.13;;;17.11;100.00
6034;BME280;3045;43.226;27.858;2023-04-20T11:34:25;150349.84;;;17.16;100.00
6034;BME280;3045;43.226;27.858;2023-04-20T11:36:53;150398.16;;;17.35;100.00
6034;BME280;3045;43.226;27.858;2023-04-20T11:39:22;150423.53;;;17.45;100.00
6034;BME280;3045;43.226;27.858;2023-04-20T11:41:49;150391.78;;;17.32;100.00
6034;BME280;3045;43.226;27.858;2023-04-20T11:44:16;150418.47;;;17.43;100.00
6034;BME280;3045;43.226;27.858;2023-04-20T11:46:45;150436.25;;;17.50;100.00
6034;BME280;3045;43.226;27.858;2023-04-20T11:49:15;150445.16;;;17.54;100.00
6034;BME280;3045;43.226;27.858;2023-04-20T11:51:42;150380.34;;;17.28;100.00
6034;BME280;3045;43.226;27.858;2023-04-20T11:54:09;150315.53;;;17.02;100.00
6034;BME280;3045;43.226;27.858;2023-04-20T11:56:36;150302.88;;;16.97;100.00
6034;BME280;3045;43.226;27.858;2023-04-20T11:59:03;150288.88;;;16.92;100.00
6034;BME280;3045;43.226;27.858;2023-04-20T12:01:30;150290.16;;;16.92;100.00
6034;BME280;3045;43.226;27.858;2023-04-20T12:03:58;150255.84;;;16.78;100.00
6034;BME280;3045;43.226;27.858;2023-04-20T12:06:27;150273.63;;;16.85;100.00
6034;BME280;3045;43.226;27.858;2023-04-20T12:08:54;150277.44;;;16.87;100.00
6034;BME280;3045;43.226;27.858;2023-04-20T12:11:21;150290.16;;;16.92;100.00
6034;BME280;3045;43.226;27.858;2023-04-20T12:13:49;150278.72;;;16.87;100.00
6034;BME280;3045;43.226;27.858;2023-04-20T12:16:16;150248.25;;;16.75;100.00
6034;BME280;3045;43.226;27.858;2023-04-20T12:18:43;150269.84;;;16.84;100.00
6034;BME280;3045;43.226;27.858;2023-04-20T12:21:10;150323.19;;;17.05;100.00
6034;BME280;3045;43.226;27.858;2023-04-20T12:23:38;150385.44;;;17.30;100.00
6034;BME280;3045;43.226;27.858;2023-04-20T12:26:05;150412.09;;;17.41;100.00
6034;BME280;3045;43.226;27.858;2023-04-20T12:28:32;150407.03;;;17.39;100.00
6034;BME280;3045;43.226;27.858;2023-04-20T12:30:59;150412.09;;;17.41;100.00
6034;BME280;3045;43.226;27.858;2023-04-20T12:33:28;150428.66;;;17.47;100.00
6034;BME280;3045;43.226;27.858;2023-04-20T12:35:55;150363.84;;;17.21;100.00
6034;BME280;3045;43.226;27.858;2023-04-20T12:38:22;150396.88;;;17.34;100.00
6034;BME280;3045;43.226;27.858;2023-04-20T12:40:50;150370.16;;;17.24;100.00
6034;BME280;3045;43.226;27.858;2023-04-20T12:43:17;150399.38;;;17.35;100.00
6034;BME280;3045;43.226;27.858;2023-04-20T12:45:44;150396.88;;;17.34;100.00
6034;BME280;3045;43.226;27.858;2023-04-20T12:48:12;150434.97;;;17.50;100.00
6034;BME280;3045;43.226;27.858;2023-04-20T12:50:39;150395.59;;;17.34;100.00
6034;BME280;3045;43.226;27.858;2023-04-20T12:53:06;150463.00;;;17.61;100.00
6034;BME280;3045;43.226;27.858;2023-04-20T12:55:33;150493.50;;;17.73;100.00
6034;BME280;3045;43.226;27.858;2023-04-20T12:58:02;150459.19;;;17.59;100.00